Admiral — WCY6529 — position and weather

sailwx.info

Track history (hours):
 
Tides and Currents Weather Stations Pressure Air Temp Water Temp Dewpoint Dewpoint Depression Visibility Wind Speed Wind Dir Waves Ship Positions

Admiral

Owner: Crowley Marine Services, SEATTLE, WA. More information available from US FCC via Universal Licensing System and Coast Guard Vessel Documentation Center.

Last reported at 2015-Jul-28 00:34 UTC. Time now 2015-Jul-28 01:30 UTC.
Position N 33°46' W 118°13'.

; draft 5.3 m.

Type: Tug. MMSI: 366755020.

Date/timePositionNaut miles runAvg speedWind from/ knotsBaromVisibWave heightAir tempDewpointWater temp
2015-Jul-28 00:34N 33°46' W 118°13'4 3.7
2015-Jul-27 23:34N 33°44' W 118°17'0 0.0
2015-Jul-27 22:34N 33°44' W 118°17'1 1.1
2015-Jul-27 21:33N 33°44' W 118°15'0 0.3
2015-Jul-27 20:33N 33°44' W 118°16'0 0.2
2015-Jul-27 19:33N 33°44' W 118°15'3 2.8
2015-Jul-27 18:34N 33°45' W 118°12'3 3.4
2015-Jul-27 17:32N 33°43' W 118°16'1 1.0
2015-Jul-27 16:33N 33°44' W 118°17'1 1.1
2015-Jul-27 15:33N 33°44' W 118°16'0 0.3
2015-Jul-27 14:31N 33°44' W 118°15'3 2.6
2015-Jul-27 13:34N 33°46' W 118°13'1 1.3
2015-Jul-27 12:32N 33°44' W 118°13'1 0.9
2015-Jul-27 11:25N 33°43' W 118°12'4 2.8
2015-Jul-27 10:08N 33°44' W 118°17'0 0.0
2015-Jul-27 09:32N 33°44' W 118°17'0 0.0
2015-Jul-27 08:31N 33°44' W 118°17'0 0.0
2015-Jul-27 07:34N 33°44' W 118°17'0 0.0
2015-Jul-27 05:27N 33°44' W 118°17'0 0.0
2015-Jul-27 04:33N 33°44' W 118°17'0 0.0
2015-Jul-27 03:33N 33°44' W 118°17'2 2.5
2015-Jul-27 02:34N 33°43' W 118°14'2 1.9
2015-Jul-27 01:32N 33°44' W 118°12'3 3.1
2015-Jul-27 00:33N 33°44' W 118°09'4 4.0
2015-Jul-26 23:34N 33°44' W 118°13'3 2.9
2015-Jul-26 22:34N 33°44' W 118°17'0 0.0
2015-Jul-26 21:34N 33°44' W 118°17'0 0.0
2015-Jul-26 20:31N 33°44' W 118°17'0 0.0
2015-Jul-26 19:34N 33°44' W 118°17'0 0.0
2015-Jul-26 18:34N 33°44' W 118°17'0 0.0
2015-Jul-26 17:34N 33°44' W 118°17'0 0.0
2015-Jul-26 16:33N 33°44' W 118°17'1 1.3
2015-Jul-26 15:34N 33°44' W 118°15'1 0.9
2015-Jul-26 14:33N 33°43' W 118°15'3 3.1
2015-Jul-26 13:34N 33°45' W 118°13'2 2.3
2015-Jul-26 12:34N 33°43' W 118°11'2 2.2
2015-Jul-26 11:33N 33°45' W 118°13'0 0.0
2015-Jul-26 10:33N 33°45' W 118°13'0 0.0
2015-Jul-26 09:34N 33°45' W 118°13'1 1.2
2015-Jul-26 08:34N 33°44' W 118°12'2 2.2
2015-Jul-26 07:34N 33°43' W 118°14'2 2.4
2015-Jul-26 06:34N 33°44' W 118°17'0 0.0
2015-Jul-26 05:34N 33°44' W 118°17'0 0.0
2015-Jul-26 04:30N 33°44' W 118°17'0 0.0
2015-Jul-26 03:34N 33°44' W 118°17'0 0.0
2015-Jul-26 02:33N 33°44' W 118°17'0 0.0
2015-Jul-26 01:33N 33°44' W 118°17'0 0.0
2015-Jul-26 00:33N 33°44' W 118°17'1 1.5
2015-Jul-25 23:34N 33°44' W 118°15'0 0.5
2015-Jul-25 22:34N 33°44' W 118°15'2 2.2
2015-Jul-25 21:34N 33°45' W 118°13'1 0.6
2015-Jul-25 20:33N 33°44' W 118°12'1 1.4
2015-Jul-25 19:34N 33°43' W 118°14'3 2.9
2015-Jul-25 18:34N 33°44' W 118°17'0 0.0
2015-Jul-25 17:33N 33°44' W 118°17'0 0.0
2015-Jul-25 16:33N 33°44' W 118°17'0 0.0
2015-Jul-25 15:33N 33°44' W 118°17'1 1.1
2015-Jul-25 14:33N 33°43' W 118°16'1 0.6
2015-Jul-25 13:33N 33°44' W 118°16'2 1.8
2015-Jul-25 12:34N 33°45' W 118°17'1 1.2
2015-Jul-25 11:34N 33°44' W 118°17'4 3.5
2015-Jul-25 10:34N 33°45' W 118°12'0 0.1
2015-Jul-25 09:33N 33°45' W 118°12'1 0.5
2015-Jul-25 08:33N 33°44' W 118°13'1 0.6
2015-Jul-25 07:33N 33°45' W 118°13'0 0.0
2015-Jul-25 06:33N 33°45' W 118°13'0 0.5
2015-Jul-25 05:34N 33°45' W 118°13'3 3.2
2015-Jul-25 04:34N 33°43' W 118°15'2 1.8
2015-Jul-25 03:34N 33°44' W 118°17'0 0.0
2015-Jul-25 02:33N 33°44' W 118°17'0 0.0
2015-Jul-25 01:34N 33°44' W 118°17'0 0.0
2015-Jul-25 00:34N 33°44' W 118°17'0 0.0
2015-Jul-24 23:33N 33°44' W 118°17'0 0.0
2015-Jul-24 22:34N 33°44' W 118°17'1 0.5
2015-Jul-24 21:33N 33°44' W 118°17'1 1.2
2015-Jul-24 20:34N 33°45' W 118°16'1 0.7
2015-Jul-24 19:20N 33°44' W 118°17'0 0.0
2015-Jul-24 18:26N 33°44' W 118°17'0 0.0
2015-Jul-24 17:34N 33°44' W 118°17'0 0.0
2015-Jul-24 16:33N 33°44' W 118°17'0 0.0
2015-Jul-24 14:18N 33°44' W 118°17'1 1.6
2015-Jul-24 13:31N 33°44' W 118°15'0 0.2
2015-Jul-24 12:16N 33°44' W 118°15'0 0.6
2015-Jul-24 11:34N 33°44' W 118°16'1 1.0
2015-Jul-24 10:32N 33°43' W 118°15'3 3.4
2015-Jul-24 09:33N 33°46' W 118°14'3 3.2
2015-Jul-24 08:29N 33°43' W 118°11'4 4.8
2015-Jul-24 07:33N 33°44' W 118°17'0 0.0
2015-Jul-24 06:21N 33°44' W 118°17'0 0.0
2015-Jul-24 05:33N 33°44' W 118°17'0 0.0
2015-Jul-24 04:33N 33°44' W 118°17'1 1.3
2015-Jul-24 03:30N 33°44' W 118°15'0 0.1
2015-Jul-24 02:33N 33°44' W 118°15'1 0.6
2015-Jul-24 01:33N 33°44' W 118°16'0 0.2
2015-Jul-24 00:33N 33°44' W 118°16'1 1.2
2015-Jul-23 23:30N 33°44' W 118°17'0 0.0
2015-Jul-23 18:18N 33°44' W 118°17'0 0.0
2015-Jul-23 17:31N 33°44' W 118°17'2 2.4
2015-Jul-23 16:34N 33°46' W 118°15'3 2.9
2015-Jul-23 15:27N 33°43' W 118°15'1 1.3
2015-Jul-23 14:31N 33°44' W 118°15'1 0.8
2015-Jul-23 13:32N 33°43' W 118°16'1 0.8
2015-Jul-23 12:31N 33°44' W 118°16'1 0.7
2015-Jul-23 11:19N 33°43' W 118°15'2 2.3
2015-Jul-23 10:29N 33°44' W 118°17'0 0.0
2015-Jul-23 09:33N 33°44' W 118°17'0 0.0
2015-Jul-23 08:31N 33°44' W 118°17'0 0.0
2015-Jul-23 07:26N 33°44' W 118°17'0 0.0
2015-Jul-23 06:33N 33°44' W 118°17'0 0.0
2015-Jul-23 05:32N 33°44' W 118°17'0 0.0
2015-Jul-23 04:33N 33°44' W 118°17'0 0.0
2015-Jul-23 03:32N 33°44' W 118°17'3 3.3
2015-Jul-23 02:33N 33°45' W 118°13'1 1.1
2015-Jul-23 01:33N 33°46' W 118°13'4 3.6
2015-Jul-23 00:33N 33°43' W 118°14'3 3.1
2015-Jul-22 23:33N 33°45' W 118°17'0 0.2
2015-Jul-22 22:33N 33°45' W 118°17'1 0.4
2015-Jul-22 20:12N 33°44' W 118°17'1 0.4
2015-Jul-22 18:31N 33°44' W 118°16'1 0.7
2015-Jul-22 17:32N 33°44' W 118°17'0 0.0
2015-Jul-22 16:33N 33°44' W 118°17'0 0.0
2015-Jul-22 15:31N 33°44' W 118°17'0 0.0
2015-Jul-22 14:33N 33°44' W 118°17'1 0.5
2015-Jul-22 12:31N 33°45' W 118°16'0 0.2
2015-Jul-22 11:34N 33°45' W 118°16'3 3.2
2015-Jul-22 10:33N 33°44' W 118°13'0 0.0
2015-Jul-22 09:34N 33°44' W 118°13'3 3.4
2015-Jul-22 08:33N 33°44' W 118°17'0 0.0
2015-Jul-22 07:33N 33°44' W 118°17'0 0.0
2015-Jul-22 06:26N 33°44' W 118°17'0 0.0
2015-Jul-22 05:31N 33°44' W 118°17'1 1.3
2015-Jul-22 04:33N 33°46' W 118°16'3 2.6
2015-Jul-22 03:21N 33°43' W 118°14'2 1.9
2015-Jul-22 02:26N 33°43' W 118°16'1 1.2
2015-Jul-22 01:26N 33°44' W 118°17'0 0.0
2015-Jul-22 00:29N 33°44' W 118°17'0 0.0
2015-Jul-21 23:33N 33°44' W 118°17'0 0.0
2015-Jul-21 22:33N 33°44' W 118°17'1 0.9
2015-Jul-21 21:33N 33°45' W 118°16'1 0.6
2015-Jul-21 20:33N 33°45' W 118°17'0 0.3
2015-Jul-21 19:27N 33°44' W 118°17'0 0.1
2015-Jul-21 18:31N 33°44' W 118°17'0 0.0
2015-Jul-21 17:33N 33°44' W 118°17'0 0.0
2015-Jul-21 16:26N 33°44' W 118°17'4 3.6
2015-Jul-21 15:27N 33°45' W 118°12'1 0.7
2015-Jul-21 14:34N 33°45' W 118°13'0 0.3
2015-Jul-21 13:25N 33°45' W 118°13'1 1.1
2015-Jul-21 12:26N 33°44' W 118°13'0 0.5
2015-Jul-21 11:28N 33°44' W 118°13'3 1.0
2015-Jul-21 08:06N 33°44' W 118°17'3 5.6
2015-Jul-21 07:29N 33°44' W 118°13'3 2.3
2015-Jul-21 06:08N 33°43' W 118°16'2 3.7
2015-Jul-21 05:33N 33°45' W 118°17'0 0.4
2015-Jul-21 04:33N 33°45' W 118°16'2 1.6
2015-Jul-21 03:33N 33°44' W 118°15'0 0.0
2015-Jul-21 02:33N 33°44' W 118°15'0 0.0
2015-Jul-21 01:33N 33°44' W 118°15'0 0.0
2015-Jul-21 00:33N 33°44' W 118°15'2 2.2
2015-Jul-20 23:33N 33°45' W 118°13'1 0.8
2015-Jul-20 22:33N 33°45' W 118°13'3 3.1
2015-Jul-20 21:32N 33°44' W 118°17'0 0.0
2015-Jul-20 20:33N 33°44' W 118°17'1 1.2
2015-Jul-20 19:33N 33°46' W 118°16'2 1.9
2015-Jul-20 18:28N 33°43' W 118°16'3 3.0
2015-Jul-20 17:33N 33°44' W 118°13'3 3.0
2015-Jul-20 16:33N 33°44' W 118°17'0 0.0
2015-Jul-20 15:33N 33°44' W 118°17'0 0.0
2015-Jul-20 14:33N 33°44' W 118°17'0 0.2
2015-Jul-20 13:32N 33°44' W 118°17'3 3.2
2015-Jul-20 12:31N 33°44' W 118°13'1 0.4
2015-Jul-20 10:33N 33°44' W 118°12'1 0.9
2015-Jul-20 09:30N 33°45' W 118°12'2 1.6
2015-Jul-20 08:26N 33°43' W 118°11'3 3.7
2015-Jul-20 07:34N 33°43' W 118°14'3 2.8
2015-Jul-20 06:33N 33°45' W 118°16'1 0.3
2015-Jul-20 03:32N 33°44' W 118°17'0 0.0
2015-Jul-20 02:14N 33°44' W 118°17'0 0.0
2015-Jul-20 01:33N 33°44' W 118°17'3 3.1
2015-Jul-20 00:34N 33°45' W 118°13'1 0.7
2015-Jul-19 23:34N 33°45' W 118°13'3 2.7
2015-Jul-19 22:33N 33°44' W 118°10'4 3.8
2015-Jul-19 21:33N 33°46' W 118°14'2 2.3
2015-Jul-19 20:33N 33°44' W 118°12'2 1.4
2015-Jul-19 19:30N 33°43' W 118°14'3 2.9
2015-Jul-19 18:33N 33°44' W 118°17'0 0.0
2015-Jul-19 17:33N 33°44' W 118°17'0 0.0
2015-Jul-19 16:34N 33°44' W 118°17'0 0.0
2015-Jul-19 15:34N 33°44' W 118°17'0 0.0
2015-Jul-19 14:33N 33°44' W 118°17'0 0.0
2015-Jul-19 13:32N 33°44' W 118°17'5 4.3
2015-Jul-19 12:22N 33°43' W 118°11'0 0.3
2015-Jul-19 11:27N 33°43' W 118°11'2 1.9
2015-Jul-19 10:33N 33°43' W 118°13'3 3.2
2015-Jul-19 09:33N 33°45' W 118°16'1 0.7
2015-Jul-19 08:33N 33°46' W 118°16'1 1.1
2015-Jul-19 07:33N 33°45' W 118°17'0 0.3
2015-Jul-19 06:31N 33°44' W 118°17'0 0.0
2015-Jul-19 05:33N 33°44' W 118°17'0 0.0
2015-Jul-19 04:33N 33°44' W 118°17'4 1.0
2015-Jul-19 00:34N 33°46' W 118°13'1 0.9
2015-Jul-18 23:34N 33°46' W 118°13'3 1.7
2015-Jul-18 21:29N 33°43' W 118°16'1 1.3
2015-Jul-18 20:34N 33°44' W 118°17'0 0.0
2015-Jul-18 19:29N 33°44' W 118°17'2 2.6
2015-Jul-18 18:34N 33°46' W 118°14'2 1.9
2015-Jul-18 17:34N 33°45' W 118°16'1 0.7
2015-Jul-18 16:33N 33°44' W 118°17'0 0.2
2015-Jul-18 15:33N 33°44' W 118°17'0 0.0
2015-Jul-18 14:17N 33°44' W 118°17'0 0.0
2015-Jul-18 13:31N 33°44' W 118°17'1 0.9
2015-Jul-18 12:34N 33°45' W 118°16'1 0.7
2015-Jul-18 11:33N 33°46' W 118°17'2 1.5
2015-Jul-18 10:34N 33°44' W 118°17'0 0.0
2015-Jul-18 09:33N 33°44' W 118°17'0 0.0
2015-Jul-18 08:33N 33°44' W 118°17'0 0.0
2015-Jul-18 07:33N 33°44' W 118°17'1 0.6
2015-Jul-18 06:34N 33°45' W 118°16'1 1.3
2015-Jul-18 05:33N 33°46' W 118°15'2 1.8
2015-Jul-18 04:33N 33°45' W 118°17'0 0.1
2015-Jul-18 03:33N 33°44' W 118°17'0 0.0
2015-Jul-18 02:33N 33°44' W 118°17'0 0.0
2015-Jul-18 01:34N 33°44' W 118°17'6 5.7
2015-Jul-18 00:34N 33°44' W 118°10'  
Track history (hours):
 
Tides and Currents Weather Stations Pressure Air Temp Water Temp Dewpoint Dewpoint Depression Visibility Wind Speed Wind Dir Waves Ship Positions

Admiral

Owner: Crowley Marine Services, SEATTLE, WA. More information available from US FCC via Universal Licensing System and Coast Guard Vessel Documentation Center.

Last reported at 2015-Jul-28 00:34 UTC. Time now 2015-Jul-28 01:30 UTC.
Position N 33°46' W 118°13'.

; draft 5.3 m.

Type: Tug. MMSI: 366755020.

Date/timePositionNaut miles runAvg speedWind from/ knotsBaromVisibWave heightAir tempDewpointWater temp
2015-Jul-28 00:34N 33°46' W 118°13'4 3.7
2015-Jul-27 23:34N 33°44' W 118°17'0 0.0
2015-Jul-27 22:34N 33°44' W 118°17'1 1.1
2015-Jul-27 21:33N 33°44' W 118°15'0 0.3
2015-Jul-27 20:33N 33°44' W 118°16'0 0.2
2015-Jul-27 19:33N 33°44' W 118°15'3 2.8
2015-Jul-27 18:34N 33°45' W 118°12'3 3.4
2015-Jul-27 17:32N 33°43' W 118°16'1 1.0
2015-Jul-27 16:33N 33°44' W 118°17'1 1.1
2015-Jul-27 15:33N 33°44' W 118°16'0 0.3
2015-Jul-27 14:31N 33°44' W 118°15'3 2.6
2015-Jul-27 13:34N 33°46' W 118°13'1 1.3
2015-Jul-27 12:32N 33°44' W 118°13'1 0.9
2015-Jul-27 11:25N 33°43' W 118°12'4 2.8
2015-Jul-27 10:08N 33°44' W 118°17'0 0.0
2015-Jul-27 09:32N 33°44' W 118°17'0 0.0
2015-Jul-27 08:31N 33°44' W 118°17'0 0.0
2015-Jul-27 07:34N 33°44' W 118°17'0 0.0
2015-Jul-27 05:27N 33°44' W 118°17'0 0.0
2015-Jul-27 04:33N 33°44' W 118°17'0 0.0
2015-Jul-27 03:33N 33°44' W 118°17'2 2.5
2015-Jul-27 02:34N 33°43' W 118°14'2 1.9
2015-Jul-27 01:32N 33°44' W 118°12'3 3.1
2015-Jul-27 00:33N 33°44' W 118°09'4 4.0
2015-Jul-26 23:34N 33°44' W 118°13'3 2.9
2015-Jul-26 22:34N 33°44' W 118°17'0 0.0
2015-Jul-26 21:34N 33°44' W 118°17'0 0.0
2015-Jul-26 20:31N 33°44' W 118°17'0 0.0
2015-Jul-26 19:34N 33°44' W 118°17'0 0.0
2015-Jul-26 18:34N 33°44' W 118°17'0 0.0
2015-Jul-26 17:34N 33°44' W 118°17'0 0.0
2015-Jul-26 16:33N 33°44' W 118°17'1 1.3
2015-Jul-26 15:34N 33°44' W 118°15'1 0.9
2015-Jul-26 14:33N 33°43' W 118°15'3 3.1
2015-Jul-26 13:34N 33°45' W 118°13'2 2.3
2015-Jul-26 12:34N 33°43' W 118°11'2 2.2
2015-Jul-26 11:33N 33°45' W 118°13'0 0.0
2015-Jul-26 10:33N 33°45' W 118°13'0 0.0
2015-Jul-26 09:34N 33°45' W 118°13'1 1.2
2015-Jul-26 08:34N 33°44' W 118°12'2 2.2
2015-Jul-26 07:34N 33°43' W 118°14'2 2.4
2015-Jul-26 06:34N 33°44' W 118°17'0 0.0
2015-Jul-26 05:34N 33°44' W 118°17'0 0.0
2015-Jul-26 04:30N 33°44' W 118°17'0 0.0
2015-Jul-26 03:34N 33°44' W 118°17'0 0.0
2015-Jul-26 02:33N 33°44' W 118°17'0 0.0
2015-Jul-26 01:33N 33°44' W 118°17'0 0.0
2015-Jul-26 00:33N 33°44' W 118°17'1 1.5
2015-Jul-25 23:34N 33°44' W 118°15'0 0.5
2015-Jul-25 22:34N 33°44' W 118°15'2 2.2
2015-Jul-25 21:34N 33°45' W 118°13'1 0.6
2015-Jul-25 20:33N 33°44' W 118°12'1 1.4
2015-Jul-25 19:34N 33°43' W 118°14'3 2.9
2015-Jul-25 18:34N 33°44' W 118°17'0 0.0
2015-Jul-25 17:33N 33°44' W 118°17'0 0.0
2015-Jul-25 16:33N 33°44' W 118°17'0 0.0
2015-Jul-25 15:33N 33°44' W 118°17'1 1.1
2015-Jul-25 14:33N 33°43' W 118°16'1 0.6
2015-Jul-25 13:33N 33°44' W 118°16'2 1.8
2015-Jul-25 12:34N 33°45' W 118°17'1 1.2
2015-Jul-25 11:34N 33°44' W 118°17'4 3.5
2015-Jul-25 10:34N 33°45' W 118°12'0 0.1
2015-Jul-25 09:33N 33°45' W 118°12'1 0.5
2015-Jul-25 08:33N 33°44' W 118°13'1 0.6
2015-Jul-25 07:33N 33°45' W 118°13'0 0.0
2015-Jul-25 06:33N 33°45' W 118°13'0 0.5
2015-Jul-25 05:34N 33°45' W 118°13'3 3.2
2015-Jul-25 04:34N 33°43' W 118°15'2 1.8
2015-Jul-25 03:34N 33°44' W 118°17'0 0.0
2015-Jul-25 02:33N 33°44' W 118°17'0 0.0
2015-Jul-25 01:34N 33°44' W 118°17'0 0.0
2015-Jul-25 00:34N 33°44' W 118°17'0 0.0
2015-Jul-24 23:33N 33°44' W 118°17'0 0.0
2015-Jul-24 22:34N 33°44' W 118°17'1 0.5
2015-Jul-24 21:33N 33°44' W 118°17'1 1.2
2015-Jul-24 20:34N 33°45' W 118°16'1 0.7
2015-Jul-24 19:20N 33°44' W 118°17'0 0.0
2015-Jul-24 18:26N 33°44' W 118°17'0 0.0
2015-Jul-24 17:34N 33°44' W 118°17'0 0.0
2015-Jul-24 16:33N 33°44' W 118°17'0 0.0
2015-Jul-24 14:18N 33°44' W 118°17'1 1.6
2015-Jul-24 13:31N 33°44' W 118°15'0 0.2
2015-Jul-24 12:16N 33°44' W 118°15'0 0.6
2015-Jul-24 11:34N 33°44' W 118°16'1 1.0
2015-Jul-24 10:32N 33°43' W 118°15'3 3.4
2015-Jul-24 09:33N 33°46' W 118°14'3 3.2
2015-Jul-24 08:29N 33°43' W 118°11'4 4.8
2015-Jul-24 07:33N 33°44' W 118°17'0 0.0
2015-Jul-24 06:21N 33°44' W 118°17'0 0.0
2015-Jul-24 05:33N 33°44' W 118°17'0 0.0
2015-Jul-24 04:33N 33°44' W 118°17'1 1.3
2015-Jul-24 03:30N 33°44' W 118°15'0 0.1
2015-Jul-24 02:33N 33°44' W 118°15'1 0.6
2015-Jul-24 01:33N 33°44' W 118°16'0 0.2
2015-Jul-24 00:33N 33°44' W 118°16'1 1.2
2015-Jul-23 23:30N 33°44' W 118°17'0 0.0
2015-Jul-23 18:18N 33°44' W 118°17'0 0.0
2015-Jul-23 17:31N 33°44' W 118°17'2 2.4
2015-Jul-23 16:34N 33°46' W 118°15'3 2.9
2015-Jul-23 15:27N 33°43' W 118°15'1 1.3
2015-Jul-23 14:31N 33°44' W 118°15'1 0.8
2015-Jul-23 13:32N 33°43' W 118°16'1 0.8
2015-Jul-23 12:31N 33°44' W 118°16'1 0.7
2015-Jul-23 11:19N 33°43' W 118°15'2 2.3
2015-Jul-23 10:29N 33°44' W 118°17'0 0.0
2015-Jul-23 09:33N 33°44' W 118°17'0 0.0
2015-Jul-23 08:31N 33°44' W 118°17'0 0.0
2015-Jul-23 07:26N 33°44' W 118°17'0 0.0
2015-Jul-23 06:33N 33°44' W 118°17'0 0.0
2015-Jul-23 05:32N 33°44' W 118°17'0 0.0
2015-Jul-23 04:33N 33°44' W 118°17'0 0.0
2015-Jul-23 03:32N 33°44' W 118°17'3 3.3
2015-Jul-23 02:33N 33°45' W 118°13'1 1.1
2015-Jul-23 01:33N 33°46' W 118°13'4 3.6
2015-Jul-23 00:33N 33°43' W 118°14'3 3.1
2015-Jul-22 23:33N 33°45' W 118°17'0 0.2
2015-Jul-22 22:33N 33°45' W 118°17'1 0.4
2015-Jul-22 20:12N 33°44' W 118°17'1 0.4
2015-Jul-22 18:31N 33°44' W 118°16'1 0.7
2015-Jul-22 17:32N 33°44' W 118°17'0 0.0
2015-Jul-22 16:33N 33°44' W 118°17'0 0.0
2015-Jul-22 15:31N 33°44' W 118°17'0 0.0
2015-Jul-22 14:33N 33°44' W 118°17'1 0.5
2015-Jul-22 12:31N 33°45' W 118°16'0 0.2
2015-Jul-22 11:34N 33°45' W 118°16'3 3.2
2015-Jul-22 10:33N 33°44' W 118°13'0 0.0
2015-Jul-22 09:34N 33°44' W 118°13'3 3.4
2015-Jul-22 08:33N 33°44' W 118°17'0 0.0
2015-Jul-22 07:33N 33°44' W 118°17'0 0.0
2015-Jul-22 06:26N 33°44' W 118°17'0 0.0
2015-Jul-22 05:31N 33°44' W 118°17'1 1.3
2015-Jul-22 04:33N 33°46' W 118°16'3 2.6
2015-Jul-22 03:21N 33°43' W 118°14'2 1.9
2015-Jul-22 02:26N 33°43' W 118°16'1 1.2
2015-Jul-22 01:26N 33°44' W 118°17'0 0.0
2015-Jul-22 00:29N 33°44' W 118°17'0 0.0
2015-Jul-21 23:33N 33°44' W 118°17'0 0.0
2015-Jul-21 22:33N 33°44' W 118°17'1 0.9
2015-Jul-21 21:33N 33°45' W 118°16'1 0.6
2015-Jul-21 20:33N 33°45' W 118°17'0 0.3
2015-Jul-21 19:27N 33°44' W 118°17'0 0.1
2015-Jul-21 18:31N 33°44' W 118°17'0 0.0
2015-Jul-21 17:33N 33°44' W 118°17'0 0.0
2015-Jul-21 16:26N 33°44' W 118°17'4 3.6
2015-Jul-21 15:27N 33°45' W 118°12'1 0.7
2015-Jul-21 14:34N 33°45' W 118°13'0 0.3
2015-Jul-21 13:25N 33°45' W 118°13'1 1.1
2015-Jul-21 12:26N 33°44' W 118°13'0 0.5
2015-Jul-21 11:28N 33°44' W 118°13'3 1.0
2015-Jul-21 08:06N 33°44' W 118°17'3 5.6
2015-Jul-21 07:29N 33°44' W 118°13'3 2.3
2015-Jul-21 06:08N 33°43' W 118°16'2 3.7
2015-Jul-21 05:33N 33°45' W 118°17'0 0.4
2015-Jul-21 04:33N 33°45' W 118°16'2 1.6
2015-Jul-21 03:33N 33°44' W 118°15'0 0.0
2015-Jul-21 02:33N 33°44' W 118°15'0 0.0
2015-Jul-21 01:33N 33°44' W 118°15'0 0.0
2015-Jul-21 00:33N 33°44' W 118°15'2 2.2
2015-Jul-20 23:33N 33°45' W 118°13'1 0.8
2015-Jul-20 22:33N 33°45' W 118°13'3 3.1
2015-Jul-20 21:32N 33°44' W 118°17'0 0.0
2015-Jul-20 20:33N 33°44' W 118°17'1 1.2
2015-Jul-20 19:33N 33°46' W 118°16'2 1.9
2015-Jul-20 18:28N 33°43' W 118°16'3 3.0
2015-Jul-20 17:33N 33°44' W 118°13'3 3.0
2015-Jul-20 16:33N 33°44' W 118°17'0 0.0
2015-Jul-20 15:33N 33°44' W 118°17'0 0.0
2015-Jul-20 14:33N 33°44' W 118°17'0 0.2
2015-Jul-20 13:32N 33°44' W 118°17'3 3.2
2015-Jul-20 12:31N 33°44' W 118°13'1 0.4
2015-Jul-20 10:33N 33°44' W 118°12'1 0.9
2015-Jul-20 09:30N 33°45' W 118°12'2 1.6
2015-Jul-20 08:26N 33°43' W 118°11'3 3.7
2015-Jul-20 07:34N 33°43' W 118°14'3 2.8
2015-Jul-20 06:33N 33°45' W 118°16'1 0.3
2015-Jul-20 03:32N 33°44' W 118°17'0 0.0
2015-Jul-20 02:14N 33°44' W 118°17'0 0.0
2015-Jul-20 01:33N 33°44' W 118°17'3 3.1
2015-Jul-20 00:34N 33°45' W 118°13'1 0.7
2015-Jul-19 23:34N 33°45' W 118°13'3 2.7
2015-Jul-19 22:33N 33°44' W 118°10'4 3.8
2015-Jul-19 21:33N 33°46' W 118°14'2 2.3
2015-Jul-19 20:33N 33°44' W 118°12'2 1.4
2015-Jul-19 19:30N 33°43' W 118°14'3 2.9
2015-Jul-19 18:33N 33°44' W 118°17'0 0.0
2015-Jul-19 17:33N 33°44' W 118°17'0 0.0
2015-Jul-19 16:34N 33°44' W 118°17'0 0.0
2015-Jul-19 15:34N 33°44' W 118°17'0 0.0
2015-Jul-19 14:33N 33°44' W 118°17'0 0.0
2015-Jul-19 13:32N 33°44' W 118°17'5 4.3
2015-Jul-19 12:22N 33°43' W 118°11'0 0.3
2015-Jul-19 11:27N 33°43' W 118°11'2 1.9
2015-Jul-19 10:33N 33°43' W 118°13'3 3.2
2015-Jul-19 09:33N 33°45' W 118°16'1 0.7
2015-Jul-19 08:33N 33°46' W 118°16'1 1.1
2015-Jul-19 07:33N 33°45' W 118°17'0 0.3
2015-Jul-19 06:31N 33°44' W 118°17'0 0.0
2015-Jul-19 05:33N 33°44' W 118°17'0 0.0
2015-Jul-19 04:33N 33°44' W 118°17'4 1.0
2015-Jul-19 00:34N 33°46' W 118°13'1 0.9
2015-Jul-18 23:34N 33°46' W 118°13'3 1.7
2015-Jul-18 21:29N 33°43' W 118°16'1 1.3
2015-Jul-18 20:34N 33°44' W 118°17'0 0.0
2015-Jul-18 19:29N 33°44' W 118°17'2 2.6
2015-Jul-18 18:34N 33°46' W 118°14'2 1.9
2015-Jul-18 17:34N 33°45' W 118°16'1 0.7
2015-Jul-18 16:33N 33°44' W 118°17'0 0.2
2015-Jul-18 15:33N 33°44' W 118°17'0 0.0
2015-Jul-18 14:17N 33°44' W 118°17'0 0.0
2015-Jul-18 13:31N 33°44' W 118°17'1 0.9
2015-Jul-18 12:34N 33°45' W 118°16'1 0.7
2015-Jul-18 11:33N 33°46' W 118°17'2 1.5
2015-Jul-18 10:34N 33°44' W 118°17'0 0.0
2015-Jul-18 09:33N 33°44' W 118°17'0 0.0
2015-Jul-18 08:33N 33°44' W 118°17'0 0.0
2015-Jul-18 07:33N 33°44' W 118°17'1 0.6
2015-Jul-18 06:34N 33°45' W 118°16'1 1.3
2015-Jul-18 05:33N 33°46' W 118°15'2 1.8
2015-Jul-18 04:33N 33°45' W 118°17'0 0.1
2015-Jul-18 03:33N 33°44' W 118°17'0 0.0
2015-Jul-18 02:33N 33°44' W 118°17'0 0.0
2015-Jul-18 01:34N 33°44' W 118°17'6 5.7
2015-Jul-18 00:34N 33°44' W 118°10'  

Dump ship's entire track history